Time;durP1;ratioP1;P1;durP2;ratioP2;P2;SDS_P1;SDS_P2;PMS_P1;PMS_P2;Temp;Humidity;BMP_temperature;BMP_pressure;BME280_temperature;BME280_humidity;BME280_pressure;Samples;Min_cycle;Max_cycle;Signal;HPM_P1;HPM_P2
2022/10/20 00:01:20;;;;;;;;;;;22.20;99.90;;;;;;5044706;28;20335;-74
2022/10/20 00:03:47;;;;;;;;;;;22.20;99.90;;;;;;5041869;28;20366;-73
2022/10/20 00:06:15;;;;;;;;;;;22.10;99.90;;;;;;5045127;28;19916;-74
2022/10/20 00:08:42;;;;;;;;;;;22.10;99.90;;;;;;5049875;28;19996;-72
2022/10/20 00:11:10;;;;;;;;;;;22.00;99.90;;;;;;5045630;28;19963;-72
2022/10/20 00:13:37;;;;;;;;;;;21.80;99.90;;;;;;5038643;28;20052;-74
2022/10/20 00:16:04;;;;;;;;;;;21.70;99.90;;;;;;5042999;28;20395;-75
2022/10/20 00:18:31;;;;;;;;;;;21.70;99.90;;;;;;5043488;28;19962;-74
2022/10/20 00:21:04;;;;;;;;;;;21.70;99.90;;;;;;5034566;28;19913;-74
2022/10/20 00:23:30;;;;;;;;;;;21.80;99.90;;;;;;5041696;28;19967;-74
2022/10/20 00:26:04;;;;;;;;;;;22.00;99.90;;;;;;5045384;28;19925;-75
2022/10/20 00:28:30;;;;;;;;;;;22.40;99.90;;;;;;5044093;28;19983;-76
2022/10/20 00:30:57;;;;;;;;;;;22.80;99.90;;;;;;5045540;28;19976;-76
2022/10/20 00:33:24;;;;;;;;;;;23.40;99.90;;;;;;5042566;28;20286;-76
2022/10/20 00:35:51;;;;;;;;;;;23.70;99.90;;;;;;5044760;28;19913;-74
2022/10/20 00:38:18;;;;;;;;;;;24.00;99.90;;;;;;5046165;28;19970;-75
2022/10/20 00:40:44;;;;;;;;;;;24.20;99.90;;;;;;5050270;28;19921;-76
2022/10/20 00:43:15;;;;;;;;;;;24.30;99.90;;;;;;5047718;28;19932;-76
2022/10/20 00:45:42;;;;;;;;;;;24.40;99.90;;;;;;5050021;28;20360;-76
2022/10/20 00:48:14;;;;;;;;;;;24.70;99.90;;;;;;5047460;28;19912;-75
2022/10/20 00:50:46;;;;;;;;;;;24.70;99.90;;;;;;5051746;28;20340;-76
2022/10/20 00:53:12;;;;;;;;;;;24.60;99.90;;;;;;5045444;28;19920;-76
2022/10/20 00:55:40;;;;;;;;;;;24.50;99.90;;;;;;5047593;28;19928;-75
2022/10/20 00:58:06;;;;;;;;;;;24.40;99.90;;;;;;5048267;28;19916;-74
2022/10/20 01:00:33;;;;;;;;;;;24.20;99.90;;;;;;5051001;28;19916;-77
2022/10/20 01:03:01;;;;;;;;;;;24.00;99.90;;;;;;5051378;28;19925;-80
2022/10/20 01:05:27;;;;;;;;;;;23.90;99.90;;;;;;5049959;28;20380;-77
2022/10/20 01:07:54;;;;;;;;;;;23.80;99.90;;;;;;5044918;28;20327;-79
2022/10/20 01:10:22;;;;;;;;;;;23.70;99.90;;;;;;5053010;28;19952;-80
2022/10/20 01:12:54;;;;;;;;;;;23.70;99.90;;;;;;5046089;28;19913;-81
2022/10/20 01:15:36;;;;;;;;;;;23.60;99.90;;;;;;5051572;28;19913;-81
2022/10/20 01:18:03;;;;;;;;;;;23.60;99.90;;;;;;5050792;28;19921;-75
2022/10/20 01:20:32;;;;;;;;;;;23.60;99.90;;;;;;5047195;28;20052;-76
2022/10/20 01:22:59;;;;;;;;;;;23.60;99.90;;;;;;5031309;28;19925;-81
2022/10/20 01:25:26;;;;;;;;;;;23.60;99.90;;;;;;5047259;28;19925;-76
2022/10/20 01:27:55;;;;;;;;;;;23.60;99.90;;;;;;5048028;28;19995;-81
2022/10/20 01:30:22;;;;;;;;;;;23.50;99.90;;;;;;5045307;28;19916;-80
2022/10/20 01:32:48;;;;;;;;;;;23.40;99.90;;;;;;5045834;28;19932;-83
2022/10/20 01:35:21;;;;;;;;;;;23.40;99.90;;;;;;5051950;28;20453;-81
2022/10/20 01:38:20;;;;;;;;;;;23.20;99.90;;;;;;5048653;28;19913;-81
2022/10/20 01:40:46;;;;;;;;;;;23.10;99.90;;;;;;5025010;28;20300;-80
2022/10/20 01:43:14;;;;;;;;;;;23.10;99.90;;;;;;5039097;28;19925;-82
2022/10/20 01:45:43;;;;;;;;;;;23.00;99.90;;;;;;5045353;28;19920;-80
2022/10/20 01:48:11;;;;;;;;;;;22.80;99.90;;;;;;5049655;28;19936;-81
2022/10/20 01:50:39;;;;;;;;;;;22.70;99.90;;;;;;5046835;28;19920;-81
2022/10/20 01:53:06;;;;;;;;;;;22.60;99.90;;;;;;5047670;28;19927;-79
2022/10/20 01:55:33;;;;;;;;;;;22.60;99.90;;;;;;5050719;28;19920;-81
2022/10/20 01:58:12;;;;;;;;;;;22.60;99.90;;;;;;5049881;28;20924;-79
2022/10/20 02:00:39;;;;;;;;;;;22.50;99.90;;;;;;5052276;28;20513;-80
2022/10/20 02:03:24;;;;;;;;;;;22.50;99.90;;;;;;5043243;28;19924;-80
2022/10/20 02:05:59;;;;;;;;;;;22.50;99.90;;;;;;5049969;28;19920;-78
2022/10/20 02:08:39;;;;;;;;;;;22.50;99.90;;;;;;5050636;28;19958;-81
2022/10/20 02:11:08;;;;;;;;;;;22.40;99.90;;;;;;5051511;28;19928;-79
2022/10/20 02:13:36;;;;;;;;;;;22.50;99.90;;;;;;5049621;28;20026;-79
2022/10/20 02:16:06;;;;;;;;;;;22.50;99.90;;;;;;5031942;28;19917;-79
2022/10/20 02:18:36;;;;;;;;;;;22.60;99.90;;;;;;5045196;28;20318;-81
2022/10/20 02:21:03;;;;;;;;;;;22.70;99.90;;;;;;5051026;28;19917;-79
2022/10/20 02:23:31;;;;;;;;;;;22.70;99.90;;;;;;5047679;28;20360;-80
2022/10/20 02:25:58;;;;;;;;;;;22.70;99.90;;;;;;5046927;28;19964;-78
2022/10/20 02:28:26;;;;;;;;;;;22.70;99.90;;;;;;5048984;28;19912;-78
2022/10/20 02:30:53;;;;;;;;;;;22.60;99.90;;;;;;5051706;28;19951;-77
2022/10/20 02:33:21;;;;;;;;;;;22.60;99.90;;;;;;5046326;28;20330;-79
2022/10/20 02:35:50;;;;;;;;;;;22.50;99.90;;;;;;5049069;28;20394;-79
2022/10/20 02:38:16;;;;;;;;;;;22.40;99.90;;;;;;5038391;28;20275;-80
2022/10/20 02:40:46;;;;;;;;;;;22.40;99.90;;;;;;5046782;28;19917;-80
2022/10/20 02:43:13;;;;;;;;;;;22.40;99.90;;;;;;5046145;28;20637;-79
2022/10/20 02:45:39;;;;;;;;;;;22.30;99.90;;;;;;5050298;28;19924;-78
2022/10/20 02:48:09;;;;;;;;;;;22.30;99.90;;;;;;5045496;28;19916;-79
2022/10/20 02:50:36;;;;;;;;;;;22.30;99.90;;;;;;5049188;28;20035;-78
2022/10/20 02:53:04;;;;;;;;;;;22.20;99.90;;;;;;5040155;28;19944;-77
2022/10/20 02:55:31;;;;;;;;;;;22.30;99.90;;;;;;5047849;28;19913;-79
2022/10/20 02:57:57;;;;;;;;;;;22.20;99.90;;;;;;5046367;28;19917;-79
2022/10/20 03:00:28;;;;;;;;;;;22.20;99.90;;;;;;5050637;28;19912;-80
2022/10/20 03:02:55;;;;;;;;;;;22.20;99.90;;;;;;5046870;28;19968;-79
2022/10/20 03:05:21;;;;;;;;;;;22.20;99.90;;;;;;5046962;28;20303;-81
2022/10/20 03:07:48;;;;;;;;;;;22.10;99.90;;;;;;5048913;28;19932;-80
2022/10/20 03:10:15;;;;;;;;;;;22.00;99.90;;;;;;5051860;28;19920;-80
2022/10/20 03:12:41;;;;;;;;;;;22.00;99.90;;;;;;5044369;28;19917;-81
2022/10/20 03:15:08;;;;;;;;;;;21.90;99.90;;;;;;5036328;28;20003;-80
2022/10/20 03:17:35;;;;;;;;;;;21.90;99.90;;;;;;5048104;28;19923;-80
2022/10/20 03:20:01;;;;;;;;;;;21.90;99.90;;;;;;5049602;28;20353;-80
2022/10/20 03:22:28;;;;;;;;;;;21.90;99.90;;;;;;5049558;28;19929;-80
2022/10/20 03:24:55;;;;;;;;;;;21.90;99.90;;;;;;5049323;28;19917;-78
2022/10/20 03:27:21;;;;;;;;;;;21.90;99.90;;;;;;5050333;28;19927;-80
2022/10/20 03:29:48;;;;;;;;;;;22.00;99.90;;;;;;5051457;28;20350;-80
2022/10/20 03:32:15;;;;;;;;;;;22.10;99.90;;;;;;5050090;28;20000;-80
2022/10/20 03:34:41;;;;;;;;;;;22.20;99.90;;;;;;5050212;28;20393;-80
2022/10/20 03:37:08;;;;;;;;;;;22.10;99.90;;;;;;5050717;28;19913;-79
2022/10/20 03:39:35;;;;;;;;;;;22.20;99.90;;;;;;5047967;28;19921;-81
2022/10/20 03:42:01;;;;;;;;;;;22.30;99.90;;;;;;5051444;28;20395;-80
2022/10/20 03:44:28;;;;;;;;;;;22.30;99.90;;;;;;5050248;28;20482;-80
2022/10/20 03:46:55;;;;;;;;;;;22.30;99.90;;;;;;5051114;28;20410;-79
2022/10/20 03:49:21;;;;;;;;;;;22.30;99.90;;;;;;5049368;28;19995;-79
2022/10/20 03:51:48;;;;;;;;;;;22.40;99.90;;;;;;5034256;28;19949;-80
2022/10/20 03:54:15;;;;;;;;;;;22.40;99.90;;;;;;5046741;28;20271;-80
2022/10/20 03:56:41;;;;;;;;;;;22.40;99.90;;;;;;5050647;28;19924;-79
2022/10/20 03:59:09;;;;;;;;;;;22.40;99.90;;;;;;5049750;28;20256;-81
2022/10/20 04:01:36;;;;;;;;;;;22.40;99.90;;;;;;5049257;28;20023;-80
2022/10/20 04:04:02;;;;;;;;;;;22.40;99.90;;;;;;5049903;28;19974;-81
2022/10/20 04:06:30;;;;;;;;;;;22.40;99.90;;;;;;5050730;28;19913;-81
2022/10/20 04:08:57;;;;;;;;;;;22.40;99.90;;;;;;5049394;28;19924;-79
2022/10/20 04:11:25;;;;;;;;;;;22.40;99.90;;;;;;5049422;28;19927;-79
2022/10/20 04:13:52;;;;;;;;;;;22.40;99.90;;;;;;5043098;28;19923;-80
2022/10/20 04:16:19;;;;;;;;;;;22.30;99.90;;;;;;5051043;28;20329;-80
2022/10/20 04:18:46;;;;;;;;;;;22.20;99.90;;;;;;5049671;28;19912;-81
2022/10/20 04:21:12;;;;;;;;;;;22.10;99.90;;;;;;5051253;28;19923;-80
2022/10/20 04:23:39;;;;;;;;;;;22.00;99.90;;;;;;5048855;28;19964;-81
2022/10/20 04:26:09;;;;;;;;;;;21.90;99.90;;;;;;5050435;28;19971;-80
2022/10/20 04:28:36;;;;;;;;;;;21.90;99.90;;;;;;5042932;28;19913;-81
2022/10/20 04:31:03;;;;;;;;;;;21.90;99.90;;;;;;5051021;28;19966;-80
2022/10/20 04:33:30;;;;;;;;;;;21.90;99.90;;;;;;5049137;28;19913;-81
2022/10/20 04:35:58;;;;;;;;;;;21.90;99.90;;;;;;5047915;28;19919;-81
2022/10/20 04:38:24;;;;;;;;;;;21.90;99.90;;;;;;5049009;28;20378;-80
2022/10/20 04:40:54;;;;;;;;;;;21.90;99.90;;;;;;5050344;28;19990;-81
2022/10/20 04:43:21;;;;;;;;;;;21.80;99.90;;;;;;5049594;28;19967;-79
2022/10/20 04:45:48;;;;;;;;;;;21.70;99.90;;;;;;5050303;28;19917;-83
2022/10/20 04:48:15;;;;;;;;;;;21.60;99.90;;;;;;5049403;28;20286;-80
2022/10/20 04:50:42;;;;;;;;;;;21.50;99.90;;;;;;5048965;28;19978;-82
2022/10/20 04:53:08;;;;;;;;;;;21.50;99.90;;;;;;5047789;28;19912;-81
2022/10/20 04:55:35;;;;;;;;;;;21.50;99.90;;;;;;5044856;28;19970;-80
2022/10/20 04:58:03;;;;;;;;;;;21.50;99.90;;;;;;5023541;28;20650;-79
2022/10/20 05:00:29;;;;;;;;;;;21.60;99.90;;;;;;5045061;28;19920;-82
2022/10/20 05:02:56;;;;;;;;;;;21.60;99.90;;;;;;5046964;28;19929;-82
2022/10/20 05:05:23;;;;;;;;;;;21.60;99.90;;;;;;5045703;28;19917;-80
2022/10/20 05:07:49;;;;;;;;;;;21.60;99.90;;;;;;5043460;28;19928;-77
2022/10/20 05:10:18;;;;;;;;;;;21.60;99.90;;;;;;5047948;28;20518;-83
2022/10/20 05:12:44;;;;;;;;;;;21.60;99.90;;;;;;5046694;28;19920;-80
2022/10/20 05:15:11;;;;;;;;;;;21.50;99.90;;;;;;5045561;28;19917;-80
2022/10/20 05:17:38;;;;;;;;;;;21.60;99.90;;;;;;5045464;28;19974;-78
2022/10/20 05:20:05;;;;;;;;;;;21.60;99.90;;;;;;5049644;28;19978;-81
2022/10/20 05:22:31;;;;;;;;;;;21.70;99.90;;;;;;5051228;28;19986;-81
2022/10/20 05:24:58;;;;;;;;;;;21.60;99.90;;;;;;5051955;28;19921;-81
2022/10/20 05:27:25;;;;;;;;;;;21.60;99.90;;;;;;5050152;28;20006;-79
2022/10/20 05:29:51;;;;;;;;;;;21.60;99.90;;;;;;5051834;28;19996;-79
2022/10/20 05:32:18;;;;;;;;;;;21.60;99.90;;;;;;5043658;28;19948;-79
2022/10/20 05:34:45;;;;;;;;;;;21.60;99.90;;;;;;5051429;28;19913;-80
2022/10/20 05:37:11;;;;;;;;;;;21.70;99.90;;;;;;5052175;28;20339;-79
2022/10/20 05:39:38;;;;;;;;;;;21.70;99.90;;;;;;5053910;28;19912;-76
2022/10/20 05:42:05;;;;;;;;;;;21.70;99.90;;;;;;5048684;28;19925;-78
2022/10/20 05:44:31;;;;;;;;;;;21.70;99.90;;;;;;5057152;28;20257;-81
2022/10/20 05:46:58;;;;;;;;;;;21.70;99.90;;;;;;5044614;28;20000;-81
2022/10/20 05:49:25;;;;;;;;;;;21.70;99.90;;;;;;5050012;28;19913;-82
2022/10/20 05:51:52;;;;;;;;;;;21.70;99.90;;;;;;5045472;28;19947;-81
2022/10/20 05:54:18;;;;;;;;;;;21.70;99.90;;;;;;5049706;28;19913;-83
2022/10/20 05:56:45;;;;;;;;;;;21.70;99.90;;;;;;5050103;28;19912;-82
2022/10/20 05:59:12;;;;;;;;;;;21.60;99.90;;;;;;5046175;28;19917;-83
2022/10/20 06:01:46;;;;;;;;;;;21.70;99.90;;;;;;5049773;28;20011;-77
2022/10/20 06:04:14;;;;;;;;;;;21.70;99.90;;;;;;5047217;28;19928;-82
2022/10/20 06:06:42;;;;;;;;;;;21.60;99.90;;;;;;5041193;28;19971;-77
2022/10/20 06:09:10;;;;;;;;;;;21.60;99.90;;;;;;5047449;28;19924;-78
2022/10/20 06:11:37;;;;;;;;;;;21.60;99.90;;;;;;5050038;28;19956;-81
2022/10/20 06:14:04;;;;;;;;;;;21.60;99.90;;;;;;5050516;28;19924;-79
2022/10/20 06:16:31;;;;;;;;;;;21.60;99.90;;;;;;5049912;28;19912;-81
2022/10/20 06:18:59;;;;;;;;;;;21.50;99.90;;;;;;5049914;28;19921;-78
2022/10/20 06:21:27;;;;;;;;;;;21.50;99.90;;;;;;5045567;28;19919;-79
2022/10/20 06:23:54;;;;;;;;;;;21.50;99.90;;;;;;5050380;28;19921;-78
2022/10/20 06:26:22;;;;;;;;;;;21.50;99.90;;;;;;5037817;28;20011;-81
2022/10/20 06:28:51;;;;;;;;;;;21.40;99.90;;;;;;5050222;28;19999;-78
2022/10/20 06:31:18;;;;;;;;;;;21.30;99.90;;;;;;5047146;28;19920;-78
2022/10/20 06:33:45;;;;;;;;;;;21.30;99.90;;;;;;5042286;28;19924;-80
2022/10/20 06:36:13;;;;;;;;;;;21.20;99.90;;;;;;5042241;28;20095;-81
2022/10/20 06:38:40;;;;;;;;;;;21.10;99.90;;;;;;5043812;28;19917;-77
2022/10/20 06:41:07;;;;;;;;;;;21.00;99.90;;;;;;5046149;28;19919;-77
2022/10/20 06:43:34;;;;;;;;;;;21.00;99.90;;;;;;5048337;28;19929;-77
2022/10/20 06:46:02;;;;;;;;;;;20.90;99.90;;;;;;5047235;28;19916;-76
2022/10/20 06:48:29;;;;;;;;;;;20.90;99.90;;;;;;5042580;28;19916;-78
2022/10/20 06:51:04;;;;;;;;;;;20.90;99.90;;;;;;5048834;28;20323;-77
2022/10/20 06:53:31;;;;;;;;;;;20.80;99.90;;;;;;5043811;28;19920;-79
2022/10/20 06:56:07;;;;;;;;;;;20.80;99.90;;;;;;5045971;28;19919;-78
2022/10/20 06:58:35;;;;;;;;;;;20.80;99.90;;;;;;5030241;28;20495;-77
2022/10/20 07:01:03;;;;;;;;;;;20.80;99.90;;;;;;5051302;28;19927;-77
2022/10/20 07:03:30;;;;;;;;;;;20.80;99.90;;;;;;5047946;28;19924;-80
2022/10/20 07:05:57;;;;;;;;;;;20.80;99.90;;;;;;5045932;28;20079;-81
2022/10/20 07:08:26;;;;;;;;;;;20.80;99.90;;;;;;5046639;28;20279;-81
2022/10/20 07:11:03;;;;;;;;;;;20.80;99.90;;;;;;5045947;28;19966;-80
2022/10/20 07:13:30;;;;;;;;;;;20.80;99.90;;;;;;5046882;28;20371;-81
2022/10/20 07:15:57;;;;;;;;;;;20.80;99.90;;;;;;5047170;28;20008;-79
2022/10/20 07:18:25;;;;;;;;;;;20.80;99.90;;;;;;5047600;28;19939;-79
2022/10/20 07:20:55;;;;;;;;;;;20.80;99.90;;;;;;5045201;28;19924;-78
2022/10/20 07:23:21;;;;;;;;;;;20.80;99.90;;;;;;5026740;28;19936;-79
2022/10/20 07:25:48;;;;;;;;;;;20.80;99.90;;;;;;5048116;28;19925;-81
2022/10/20 07:28:14;;;;;;;;;;;20.80;99.90;;;;;;5044903;28;19913;-78
2022/10/20 07:30:41;;;;;;;;;;;20.80;99.90;;;;;;5047714;28;19941;-79
2022/10/20 07:33:08;;;;;;;;;;;20.80;99.90;;;;;;5042781;28;19923;-81
2022/10/20 07:35:35;;;;;;;;;;;20.80;99.90;;;;;;5044497;28;19921;-81
2022/10/20 07:38:02;;;;;;;;;;;20.70;99.90;;;;;;5028733;28;19920;-82
2022/10/20 07:40:29;;;;;;;;;;;20.70;99.90;;;;;;5047645;28;20622;-80
2022/10/20 07:42:56;;;;;;;;;;;20.80;99.90;;;;;;5043655;28;19928;-82
2022/10/20 07:45:23;;;;;;;;;;;20.70;99.90;;;;;;5045786;28;19924;-80
2022/10/20 07:47:49;;;;;;;;;;;20.60;99.90;;;;;;5044483;28;19961;-78
2022/10/20 07:50:16;;;;;;;;;;;20.60;99.90;;;;;;5050598;28;19916;-80
2022/10/20 07:52:43;;;;;;;;;;;20.60;99.90;;;;;;5048775;28;19916;-81
2022/10/20 07:55:09;;;;;;;;;;;20.50;99.90;;;;;;5051870;28;19952;-81
2022/10/20 07:57:36;;;;;;;;;;;20.50;99.90;;;;;;5048885;28;19917;-78
2022/10/20 08:00:03;;;;;;;;;;;20.40;99.90;;;;;;5049685;28;19990;-80
2022/10/20 08:02:30;;;;;;;;;;;20.40;99.90;;;;;;5046090;28;19929;-80
2022/10/20 08:04:56;;;;;;;;;;;20.40;99.90;;;;;;5051546;28;19996;-76
2022/10/20 08:07:23;;;;;;;;;;;20.30;99.90;;;;;;5048203;28;19967;-80
2022/10/20 08:09:50;;;;;;;;;;;20.30;99.90;;;;;;5047675;28;19958;-82
2022/10/20 08:12:16;;;;;;;;;;;20.30;99.90;;;;;;5047077;28;20259;-78
2022/10/20 08:14:43;;;;;;;;;;;20.30;99.90;;;;;;5048636;28;19927;-79
2022/10/20 08:17:10;;;;;;;;;;;20.20;99.90;;;;;;5048561;28;19948;-78
2022/10/20 08:19:36;;;;;;;;;;;20.20;99.90;;;;;;5047270;28;19916;-82
2022/10/20 08:22:03;;;;;;;;;;;20.10;99.90;;;;;;5050973;28;20056;-81
2022/10/20 08:24:30;;;;;;;;;;;20.10;99.90;;;;;;5048895;28;19920;-83
2022/10/20 08:26:57;;;;;;;;;;;20.00;99.90;;;;;;5050585;28;20008;-83
2022/10/20 08:29:23;;;;;;;;;;;20.00;99.90;;;;;;5054213;28;19921;-81
2022/10/20 08:31:50;;;;;;;;;;;20.00;99.90;;;;;;5049417;28;19913;-81
2022/10/20 08:34:16;;;;;;;;;;;19.90;99.90;;;;;;5049422;28;20267;-75
2022/10/20 08:36:43;;;;;;;;;;;20.00;99.90;;;;;;5028750;28;19923;-79
2022/10/20 08:39:10;;;;;;;;;;;19.90;99.90;;;;;;5044297;28;19962;-82
2022/10/20 08:41:43;;;;;;;;;;;19.90;99.90;;;;;;5045566;28;19912;-78
2022/10/20 08:44:13;;;;;;;;;;;19.90;99.90;;;;;;5042690;28;19927;-83
2022/10/20 08:46:40;;;;;;;;;;;19.90;99.90;;;;;;5040407;28;19920;-81
2022/10/20 08:49:10;;;;;;;;;;;19.80;99.90;;;;;;5037816;28;20424;-81
2022/10/20 08:51:37;;;;;;;;;;;19.80;99.90;;;;;;5040957;28;20391;-82
2022/10/20 08:54:05;;;;;;;;;;;19.80;99.90;;;;;;5044719;28;20023;-77
2022/10/20 08:56:34;;;;;;;;;;;19.80;99.90;;;;;;5048722;28;19916;-81
2022/10/20 08:59:02;;;;;;;;;;;19.80;99.90;;;;;;5048137;28;19921;-82
2022/10/20 09:01:32;;;;;;;;;;;19.80;99.90;;;;;;5046453;28;19921;-79
2022/10/20 09:04:17;;;;;;;;;;;19.80;99.90;;;;;;5045641;28;19940;-82
2022/10/20 09:06:45;;;;;;;;;;;19.80;99.90;;;;;;5027623;28;20398;-80
2022/10/20 09:09:15;;;;;;;;;;;19.80;99.90;;;;;;5041883;28;19916;-79
2022/10/20 09:11:43;;;;;;;;;;;19.80;99.90;;;;;;5045486;28;19920;-78
2022/10/20 09:14:15;;;;;;;;;;;19.80;99.90;;;;;;5044144;28;19924;-80
2022/10/20 09:16:42;;;;;;;;;;;19.80;99.90;;;;;;5053130;28;19958;-83
2022/10/20 09:19:19;;;;;;;;;;;19.80;99.90;;;;;;5052247;28;19935;-76
2022/10/20 09:21:49;;;;;;;;;;;19.80;99.90;;;;;;5052612;28;19917;-76
2022/10/20 09:24:17;;;;;;;;;;;19.70;99.90;;;;;;5049569;28;19979;-77
2022/10/20 09:26:45;;;;;;;;;;;19.70;99.90;;;;;;5049414;28;19925;-79
2022/10/20 09:29:13;;;;;;;;;;;19.70;99.90;;;;;;5049692;28;19924;-81
2022/10/20 09:31:41;;;;;;;;;;;19.70;99.90;;;;;;5051756;28;19917;-80
2022/10/20 09:34:27;;;;;;;;;;;19.60;99.90;;;;;;5048466;28;19916;-82
2022/10/20 09:36:57;;;;;;;;;;;19.70;99.90;;;;;;5053180;28;19913;-82
2022/10/20 09:39:26;;;;;;;;;;;19.70;99.90;;;;;;5052005;28;20280;-84
2022/10/20 09:42:04;;;;;;;;;;;19.70;99.90;;;;;;5044642;28;19928;-78
2022/10/20 09:44:33;;;;;;;;;;;19.70;99.90;;;;;;5049878;28;19927;-81
2022/10/20 09:47:01;;;;;;;;;;;19.70;99.90;;;;;;5066704;28;19978;-74
2022/10/20 09:49:33;;;;;;;;;;;19.70;99.90;;;;;;5048309;28;19973;-82
2022/10/20 09:52:01;;;;;;;;;;;19.70;99.90;;;;;;5053792;28;19913;-79
2022/10/20 09:54:28;;;;;;;;;;;19.60;99.90;;;;;;5046203;28;20375;-76
2022/10/20 09:57:03;;;;;;;;;;;19.60;99.90;;;;;;5050828;28;19964;-85
2022/10/20 09:59:39;;;;;;;;;;;19.60;99.90;;;;;;5047023;28;19924;-81
2022/10/20 10:02:15;;;;;;;;;;;19.60;99.90;;;;;;5045985;28;19966;-75
2022/10/20 10:04:46;;;;;;;;;;;19.50;99.90;;;;;;5052824;28;19952;-84
2022/10/20 10:07:22;;;;;;;;;;;19.60;99.90;;;;;;5044831;28;19956;-81
2022/10/20 10:09:57;;;;;;;;;;;19.60;99.90;;;;;;5047941;28;19916;-80
2022/10/20 10:12:25;;;;;;;;;;;19.60;99.90;;;;;;5044936;28;20383;-83
2022/10/20 10:14:51;;;;;;;;;;;19.50;99.90;;;;;;5047746;28;19947;-85
2022/10/20 10:17:30;;;;;;;;;;;19.60;99.90;;;;;;5046136;28;20035;-76
2022/10/20 10:19:57;;;;;;;;;;;19.60;99.90;;;;;;5042149;28;20000;-76
2022/10/20 10:22:24;;;;;;;;;;;19.60;99.90;;;;;;5048022;28;20490;-78
2022/10/20 10:24:53;;;;;;;;;;;19.50;99.90;;;;;;5048795;28;19927;-77
2022/10/20 10:27:22;;;;;;;;;;;19.60;99.90;;;;;;5050734;28;19916;-74
2022/10/20 10:29:49;;;;;;;;;;;19.50;99.90;;;;;;5049192;28;20381;-75
2022/10/20 10:32:25;;;;;;;;;;;19.50;99.90;;;;;;5047508;28;19956;-76
2022/10/20 10:35:06;;;;;;;;;;;19.60;99.90;;;;;;5049843;28;20356;-76
2022/10/20 10:37:34;;;;;;;;;;;19.60;99.90;;;;;;5043446;28;19920;-73
2022/10/20 10:40:01;;;;;;;;;;;19.60;99.90;;;;;;5049131;28;19957;-73
2022/10/20 10:42:32;;;;;;;;;;;19.60;99.90;;;;;;5043456;28;20254;-74
2022/10/20 10:45:18;;;;;;;;;;;19.60;99.90;;;;;;5046850;28;20008;-77
2022/10/20 10:47:48;;;;;;;;;;;19.60;99.90;;;;;;5044684;28;19917;-75
2022/10/20 10:50:27;;;;;;;;;;;19.60;99.90;;;;;;5046207;28;19988;-75
2022/10/20 10:52:59;;;;;;;;;;;19.60;99.90;;;;;;5045207;28;19913;-75
2022/10/20 10:55:33;;;;;;;;;;;19.60;99.90;;;;;;5050340;28;19964;-81
2022/10/20 10:58:14;;;;;;;;;;;19.60;99.90;;;;;;5046773;28;20313;-78
2022/10/20 11:00:43;;;;;;;;;;;19.70;99.90;;;;;;5049356;28;19917;-72
2022/10/20 11:03:28;;;;;;;;;;;19.70;99.90;;;;;;5042674;28;20040;-74
2022/10/20 11:06:03;;;;;;;;;;;19.60;99.90;;;;;;5041599;28;19921;-78
2022/10/20 11:08:49;;;;;;;;;;;19.60;99.90;;;;;;5048678;28;19953;-73
2022/10/20 11:11:31;;;;;;;;;;;19.60;99.90;;;;;;5048674;28;19939;-77
2022/10/20 11:14:12;;;;;;;;;;;19.50;99.90;;;;;;5039005;28;20038;-76
2022/10/20 11:16:52;;;;;;;;;;;19.50;99.90;;;;;;5042895;28;20021;-76
2022/10/20 11:19:19;;;;;;;;;;;19.50;99.90;;;;;;5046107;28;19944;-74
2022/10/20 11:21:52;;;;;;;;;;;19.50;99.90;;;;;;5044155;28;19921;-78
2022/10/20 11:24:36;;;;;;;;;;;19.40;99.90;;;;;;5047650;28;19959;-77
2022/10/20 11:27:13;;;;;;;;;;;19.40;99.90;;;;;;5050073;28;20387;-74
2022/10/20 11:29:49;;;;;;;;;;;19.40;99.90;;;;;;5050902;28;19913;-76
2022/10/20 11:32:21;;;;;;;;;;;19.40;99.90;;;;;;5043063;28;19912;-75
2022/10/20 11:35:06;;;;;;;;;;;19.40;99.90;;;;;;5047751;28;19912;-72
2022/10/20 11:37:56;;;;;;;;;;;19.40;99.90;;;;;;5045607;28;20264;-74
2022/10/20 11:40:24;;;;;;;;;;;19.40;99.90;;;;;;5037775;28;20007;-74
2022/10/20 11:42:50;;;;;;;;;;;19.40;99.90;;;;;;5040251;28;19935;-74
2022/10/20 11:45:26;;;;;;;;;;;19.40;99.90;;;;;;5046579;28;19920;-84
2022/10/20 11:48:11;;;;;;;;;;;19.40;99.90;;;;;;5044404;28;19920;-76
2022/10/20 11:50:38;;;;;;;;;;;19.40;99.90;;;;;;5049869;28;20417;-78
2022/10/20 11:53:18;;;;;;;;;;;19.40;99.90;;;;;;5045971;28;19913;-77
2022/10/20 11:55:57;;;;;;;;;;;19.40;99.90;;;;;;5046734;28;19912;-75
2022/10/20 11:58:33;;;;;;;;;;;19.40;99.90;;;;;;5047427;28;20426;-78
2022/10/20 12:01:28;;;;;;;;;;;19.40;99.90;;;;;;5049146;28;19991;-77
2022/10/20 12:03:55;;;;;;;;;;;19.40;99.90;;;;;;5028439;28;20429;-81
2022/10/20 12:06:27;;;;;;;;;;;19.30;99.90;;;;;;5044243;28;19917;-79
2022/10/20 12:08:57;;;;;;;;;;;19.30;99.90;;;;;;5052339;28;19974;-77
2022/10/20 12:11:29;;;;;;;;;;;19.30;99.90;;;;;;5042421;28;19926;-81
2022/10/20 12:13:56;;;;;;;;;;;19.30;99.90;;;;;;5043773;28;20306;-78
2022/10/20 12:16:41;;;;;;;;;;;19.30;99.90;;;;;;5048938;28;19916;-80
2022/10/20 12:19:36;;;;;;;;;;;19.30;99.90;;;;;;5042434;28;19939;-80
2022/10/20 12:22:16;;;;;;;;;;;19.20;99.90;;;;;;5040022;28;19920;-82
2022/10/20 12:25:02;;;;;;;;;;;19.10;99.90;;;;;;5026513;28;19931;-81
2022/10/20 12:27:29;;;;;;;;;;;19.10;99.90;;;;;;5037714;28;19929;-79
2022/10/20 12:29:57;;;;;;;;;;;19.00;99.90;;;;;;5038429;28;19920;-77
2022/10/20 12:32:25;;;;;;;;;;;19.00;99.90;;;;;;5040593;28;19920;-75
2022/10/20 12:34:56;;;;;;;;;;;18.90;99.90;;;;;;5040256;28;19916;-79
2022/10/20 12:37:30;;;;;;;;;;;18.90;99.90;;;;;;5039185;28;19917;-82
2022/10/20 12:40:17;;;;;;;;;;;19.00;99.90;;;;;;5041136;28;19913;-83
2022/10/20 12:42:47;;;;;;;;;;;19.00;99.90;;;;;;5044770;28;19924;-74
2022/10/20 12:45:20;;;;;;;;;;;19.00;99.90;;;;;;5048194;28;19972;-80
2022/10/20 12:47:48;;;;;;;;;;;19.00;99.90;;;;;;5043086;28;20339;-78
2022/10/20 12:50:21;;;;;;;;;;;19.10;99.90;;;;;;5039529;28;19920;-76
2022/10/20 12:52:48;;;;;;;;;;;19.00;99.90;;;;;;5046727;28;20386;-80
2022/10/20 12:55:16;;;;;;;;;;;19.00;99.90;;;;;;5050308;28;20501;-74
2022/10/20 12:57:44;;;;;;;;;;;19.00;99.90;;;;;;5042608;28;19916;-78
2022/10/20 13:00:31;;;;;;;;;;;19.00;99.90;;;;;;5039913;28;20031;-79
2022/10/20 13:02:59;;;;;;;;;;;19.00;99.90;;;;;;5007763;28;19960;-77
2022/10/20 13:05:45;;;;;;;;;;;19.00;99.90;;;;;;5041299;28;19925;-75
2022/10/20 13:08:31;;;;;;;;;;;18.90;99.90;;;;;;5037179;28;20720;-78
2022/10/20 13:11:16;;;;;;;;;;;18.90;99.90;;;;;;5040580;28;19913;-81
2022/10/20 13:13:50;;;;;;;;;;;18.80;99.90;;;;;;5040852;28;19917;-74
2022/10/20 13:16:19;;;;;;;;;;;18.90;99.90;;;;;;5039621;28;19931;-76
2022/10/20 13:18:49;;;;;;;;;;;18.80;99.90;;;;;;5037034;28;19917;-79
2022/10/20 13:21:30;;;;;;;;;;;18.80;99.90;;;;;;5040772;28;19978;-80
2022/10/20 13:24:00;;;;;;;;;;;18.80;99.90;;;;;;5038648;28;20011;-82
2022/10/20 13:26:58;;;;;;;;;;;18.70;99.90;;;;;;5038106;28;19928;-76
2022/10/20 13:29:36;;;;;;;;;;;18.70;99.90;;;;;;5028187;28;19919;-77
2022/10/20 13:32:08;;;;;;;;;;;18.70;99.90;;;;;;5039674;28;19963;-78
2022/10/20 13:34:35;;;;;;;;;;;18.70;99.90;;;;;;5041144;28;19939;-75
2022/10/20 13:37:01;;;;;;;;;;;18.70;99.90;;;;;;5039411;28;19913;-77
2022/10/20 13:39:28;;;;;;;;;;;18.70;99.90;;;;;;5046846;28;20313;-81
2022/10/20 13:41:57;;;;;;;;;;;18.80;99.90;;;;;;5043029;28;19924;-81
2022/10/20 13:44:27;;;;;;;;;;;18.90;99.90;;;;;;5058425;28;19969;-82
2022/10/20 13:47:01;;;;;;;;;;;18.90;99.90;;;;;;5052382;28;19921;-76
2022/10/20 13:49:31;;;;;;;;;;;19.00;99.90;;;;;;5044548;28;19928;-75
2022/10/20 13:51:59;;;;;;;;;;;19.00;99.90;;;;;;5045189;28;19982;-81
2022/10/20 13:54:28;;;;;;;;;;;19.00;99.90;;;;;;5044108;28;20036;-80
2022/10/20 13:56:55;;;;;;;;;;;19.00;99.90;;;;;;5044777;28;19917;-80
2022/10/20 13:59:26;;;;;;;;;;;19.00;99.90;;;;;;5050690;28;19978;-77
2022/10/20 14:01:57;;;;;;;;;;;19.00;99.90;;;;;;5046640;28;20019;-80
2022/10/20 14:04:29;;;;;;;;;;;19.10;99.90;;;;;;5054163;28;19916;-79
2022/10/20 14:07:01;;;;;;;;;;;19.10;99.90;;;;;;5051854;28;19916;-86
2022/10/20 14:09:27;;;;;;;;;;;19.10;99.90;;;;;;5048102;28;20279;-81
2022/10/20 14:12:04;;;;;;;;;;;19.10;99.90;;;;;;5050837;28;19967;-81
2022/10/20 14:14:31;;;;;;;;;;;19.10;99.90;;;;;;5046186;28;19923;-80
2022/10/20 14:16:58;;;;;;;;;;;19.00;99.90;;;;;;5056469;28;19913;-81
2022/10/20 14:19:29;;;;;;;;;;;19.00;99.90;;;;;;5051552;28;20263;-82
2022/10/20 14:21:57;;;;;;;;;;;19.00;99.90;;;;;;5067361;28;20450;-80
2022/10/20 14:24:23;;;;;;;;;;;19.00;99.90;;;;;;5051045;28;19917;-81
2022/10/20 14:26:53;;;;;;;;;;;19.00;99.90;;;;;;5028720;28;20542;-79
2022/10/20 14:29:22;;;;;;;;;;;19.00;99.90;;;;;;5047603;28;20310;-77
2022/10/20 14:31:48;;;;;;;;;;;19.00;99.90;;;;;;5051332;28;20317;-78